sensor_id;sensor_type;location;lat;lon;timestamp;temperature;humidity
36450;DHT22;22475;51.390;7.180;2023-03-01T01:24:27;8.50;76.30
36450;DHT22;22475;51.390;7.180;2023-03-01T01:26:54;8.50;76.40
36450;DHT22;22475;51.390;7.180;2023-03-01T01:29:21;8.50;76.30
36450;DHT22;22475;51.390;7.180;2023-03-01T01:31:48;8.60;76.40
36450;DHT22;22475;51.390;7.180;2023-03-01T01:34:16;8.50;76.40
36450;DHT22;22475;51.390;7.180;2023-03-01T01:36:43;8.50;76.40
36450;DHT22;22475;51.390;7.180;2023-03-01T01:39:10;8.50;76.40
36450;DHT22;22475;51.390;7.180;2023-03-01T01:41:41;8.50;76.40
36450;DHT22;22475;51.390;7.180;2023-03-01T01:44:15;8.50;76.40
36450;DHT22;22475;51.390;7.180;2023-03-01T01:46:44;8.50;76.30
36450;DHT22;22475;51.390;7.180;2023-03-01T01:49:19;8.50;76.30
36450;DHT22;22475;51.390;7.180;2023-03-01T01:51:49;8.50;76.30
36450;DHT22;22475;51.390;7.180;2023-03-01T01:54:20;8.50;76.30
36450;DHT22;22475;51.390;7.180;2023-03-01T01:56:54;8.50;76.30
36450;DHT22;22475;51.390;7.180;2023-03-01T01:59:23;8.50;76.30
36450;DHT22;22475;51.390;7.180;2023-03-01T02:01:50;8.50;76.30
36450;DHT22;22475;51.390;7.180;2023-03-01T02:04:17;8.50;76.30
36450;DHT22;22475;51.390;7.180;2023-03-01T02:06:48;8.50;76.40
36450;DHT22;22475;51.390;7.180;2023-03-01T02:09:19;8.50;76.30
36450;DHT22;22475;51.390;7.180;2023-03-01T02:11:49;8.50;76.30
36450;DHT22;22475;51.390;7.180;2023-03-01T02:14:17;8.50;76.40
36450;DHT22;22475;51.390;7.180;2023-03-01T02:16:44;8.50;76.30
36450;DHT22;22475;51.390;7.180;2023-03-01T02:19:17;8.50;76.20
36450;DHT22;22475;51.390;7.180;2023-03-01T02:21:51;8.50;76.20
36450;DHT22;22475;51.390;7.180;2023-03-01T02:24:28;8.50;76.10
36450;DHT22;22475;51.390;7.180;2023-03-01T02:26:58;8.50;76.40
36450;DHT22;22475;51.390;7.180;2023-03-01T02:29:28;8.50;76.00
36450;DHT22;22475;51.390;7.180;2023-03-01T02:31:57;8.50;76.10
36450;DHT22;22475;51.390;7.180;2023-03-01T02:34:25;8.50;76.10
36450;DHT22;22475;51.390;7.180;2023-03-01T02:36:56;8.50;76.10
36450;DHT22;22475;51.390;7.180;2023-03-01T02:39:26;8.50;76.10
36450;DHT22;22475;51.390;7.180;2023-03-01T02:41:55;8.40;76.10
36450;DHT22;22475;51.390;7.180;2023-03-01T02:44:23;8.50;76.20
36450;DHT22;22475;51.390;7.180;2023-03-01T02:46:56;8.50;76.20
36450;DHT22;22475;51.390;7.180;2023-03-01T02:49:25;8.50;76.10
36450;DHT22;22475;51.390;7.180;2023-03-01T02:52:06;8.40;75.90
36450;DHT22;22475;51.390;7.180;2023-03-01T02:54:38;8.40;76.00
36450;DHT22;22475;51.390;7.180;2023-03-01T02:57:06;8.40;76.00
36450;DHT22;22475;51.390;7.180;2023-03-01T02:59:35;8.40;76.00
36450;DHT22;22475;51.390;7.180;2023-03-01T03:02:06;8.40;75.90
36450;DHT22;22475;51.390;7.180;2023-03-01T03:04:33;8.40;76.00
36450;DHT22;22475;51.390;7.180;2023-03-01T03:07:00;8.40;75.90
36450;DHT22;22475;51.390;7.180;2023-03-01T03:09:27;8.40;75.90
36450;DHT22;22475;51.390;7.180;2023-03-01T03:11:53;8.40;75.90
36450;DHT22;22475;51.390;7.180;2023-03-01T03:14:20;8.40;75.90
36450;DHT22;22475;51.390;7.180;2023-03-01T03:16:48;8.40;76.00
36450;DHT22;22475;51.390;7.180;2023-03-01T03:19:17;8.40;75.90
36450;DHT22;22475;51.390;7.180;2023-03-01T03:21:45;8.40;75.90
36450;DHT22;22475;51.390;7.180;2023-03-01T03:24:11;8.40;75.90
36450;DHT22;22475;51.390;7.180;2023-03-01T03:26:38;8.40;75.90
36450;DHT22;22475;51.390;7.180;2023-03-01T03:29:05;8.40;75.80
36450;DHT22;22475;51.390;7.180;2023-03-01T03:31:32;8.40;75.70
36450;DHT22;22475;51.390;7.180;2023-03-01T03:33:58;8.40;75.60
36450;DHT22;22475;51.390;7.180;2023-03-01T03:36:26;8.40;75.70
36450;DHT22;22475;51.390;7.180;2023-03-01T03:38:53;8.40;75.70
36450;DHT22;22475;51.390;7.180;2023-03-01T03:41:20;8.40;76.50
36450;DHT22;22475;51.390;7.180;2023-03-01T03:43:47;8.40;75.70
36450;DHT22;22475;51.390;7.180;2023-03-01T03:46:14;8.40;75.70
36450;DHT22;22475;51.390;7.180;2023-03-01T03:48:44;8.40;75.70
36450;DHT22;22475;51.390;7.180;2023-03-01T03:51:11;8.40;75.60
36450;DHT22;22475;51.390;7.180;2023-03-01T03:53:40;8.40;75.60
36450;DHT22;22475;51.390;7.180;2023-03-01T03:56:08;8.40;75.50
36450;DHT22;22475;51.390;7.180;2023-03-01T03:58:35;8.30;75.50
36450;DHT22;22475;51.390;7.180;2023-03-01T04:01:02;8.30;75.50
36450;DHT22;22475;51.390;7.180;2023-03-01T04:03:30;8.30;75.40
36450;DHT22;22475;51.390;7.180;2023-03-01T04:05:57;8.30;75.40
36450;DHT22;22475;51.390;7.180;2023-03-01T04:08:25;8.30;75.40
36450;DHT22;22475;51.390;7.180;2023-03-01T04:11:00;8.30;75.40
36450;DHT22;22475;51.390;7.180;2023-03-01T04:13:48;8.30;75.40
36450;DHT22;22475;51.390;7.180;2023-03-01T04:16:16;8.30;75.40
36450;DHT22;22475;51.390;7.180;2023-03-01T04:18:43;8.30;75.30
36450;DHT22;22475;51.390;7.180;2023-03-01T04:21:10;8.30;75.20
36450;DHT22;22475;51.390;7.180;2023-03-01T04:23:38;8.30;75.30
36450;DHT22;22475;51.390;7.180;2023-03-01T04:26:08;8.30;75.40
36450;DHT22;22475;51.390;7.180;2023-03-01T04:28:37;8.30;75.30
36450;DHT22;22475;51.390;7.180;2023-03-01T04:31:08;8.30;75.30
36450;DHT22;22475;51.390;7.180;2023-03-01T04:33:40;8.20;75.20
36450;DHT22;22475;51.390;7.180;2023-03-01T04:36:08;8.20;75.20
36450;DHT22;22475;51.390;7.180;2023-03-01T04:38:35;8.20;75.20
36450;DHT22;22475;51.390;7.180;2023-03-01T04:41:03;8.20;75.20
36450;DHT22;22475;51.390;7.180;2023-03-01T04:43:31;8.20;75.30
36450;DHT22;22475;51.390;7.180;2023-03-01T04:46:00;8.20;75.40
36450;DHT22;22475;51.390;7.180;2023-03-01T04:48:28;8.20;75.40
36450;DHT22;22475;51.390;7.180;2023-03-01T04:50:55;8.20;75.40
36450;DHT22;22475;51.390;7.180;2023-03-01T04:53:21;8.20;75.40
36450;DHT22;22475;51.390;7.180;2023-03-01T04:55:48;8.20;75.20
36450;DHT22;22475;51.390;7.180;2023-03-01T04:58:15;8.30;75.30
36450;DHT22;22475;51.390;7.180;2023-03-01T05:00:43;8.20;75.20
36450;DHT22;22475;51.390;7.180;2023-03-01T05:03:10;8.20;75.10
36450;DHT22;22475;51.390;7.180;2023-03-01T05:05:38;8.20;75.10
36450;DHT22;22475;51.390;7.180;2023-03-01T05:08:06;8.20;75.00
36450;DHT22;22475;51.390;7.180;2023-03-01T05:10:35;8.20;75.00
36450;DHT22;22475;51.390;7.180;2023-03-01T05:13:04;8.20;75.10
36450;DHT22;22475;51.390;7.180;2023-03-01T05:15:32;8.20;75.10
36450;DHT22;22475;51.390;7.180;2023-03-01T05:18:00;8.20;75.10
36450;DHT22;22475;51.390;7.180;2023-03-01T05:20:28;8.20;75.00
36450;DHT22;22475;51.390;7.180;2023-03-01T05:22:57;8.20;75.00
36450;DHT22;22475;51.390;7.180;2023-03-01T05:25:24;8.20;75.00
36450;DHT22;22475;51.390;7.180;2023-03-01T05:27:51;8.20;75.00
36450;DHT22;22475;51.390;7.180;2023-03-01T05:30:18;8.20;75.00
36450;DHT22;22475;51.390;7.180;2023-03-01T05:32:46;8.20;74.90
36450;DHT22;22475;51.390;7.180;2023-03-01T05:35:16;8.20;74.90
36450;DHT22;22475;51.390;7.180;2023-03-01T05:37:45;8.20;74.80
36450;DHT22;22475;51.390;7.180;2023-03-01T05:40:15;8.20;74.80
36450;DHT22;22475;51.390;7.180;2023-03-01T05:42:44;8.10;74.80
36450;DHT22;22475;51.390;7.180;2023-03-01T05:45:12;8.20;74.80
36450;DHT22;22475;51.390;7.180;2023-03-01T05:47:39;8.20;74.90
36450;DHT22;22475;51.390;7.180;2023-03-01T05:50:13;8.20;74.90
36450;DHT22;22475;51.390;7.180;2023-03-01T05:52:46;8.10;74.80
36450;DHT22;22475;51.390;7.180;2023-03-01T05:55:14;8.10;74.80
36450;DHT22;22475;51.390;7.180;2023-03-01T05:57:41;8.10;74.80
36450;DHT22;22475;51.390;7.180;2023-03-01T06:00:09;8.10;74.70
36450;DHT22;22475;51.390;7.180;2023-03-01T06:02:36;8.10;74.70
36450;DHT22;22475;51.390;7.180;2023-03-01T06:05:03;8.10;74.80
36450;DHT22;22475;51.390;7.180;2023-03-01T06:07:31;8.10;74.70
36450;DHT22;22475;51.390;7.180;2023-03-01T06:09:59;8.10;74.70
36450;DHT22;22475;51.390;7.180;2023-03-01T06:12:26;8.10;74.70
36450;DHT22;22475;51.390;7.180;2023-03-01T06:14:52;8.10;74.70
36450;DHT22;22475;51.390;7.180;2023-03-01T06:17:19;8.10;74.70
36450;DHT22;22475;51.390;7.180;2023-03-01T06:19:46;8.10;74.60
36450;DHT22;22475;51.390;7.180;2023-03-01T06:22:13;8.10;74.60
36450;DHT22;22475;51.390;7.180;2023-03-01T06:24:40;8.10;74.60
36450;DHT22;22475;51.390;7.180;2023-03-01T06:27:08;8.10;74.60
36450;DHT22;22475;51.390;7.180;2023-03-01T06:29:35;8.10;74.60
36450;DHT22;22475;51.390;7.180;2023-03-01T06:32:02;8.00;74.60
36450;DHT22;22475;51.390;7.180;2023-03-01T06:34:29;8.00;74.60
36450;DHT22;22475;51.390;7.180;2023-03-01T06:36:56;8.10;74.70
36450;DHT22;22475;51.390;7.180;2023-03-01T06:39:23;8.10;74.70
36450;DHT22;22475;51.390;7.180;2023-03-01T06:41:49;8.00;74.70
36450;DHT22;22475;51.390;7.180;2023-03-01T06:44:17;8.10;74.70
36450;DHT22;22475;51.390;7.180;2023-03-01T06:46:44;8.10;74.70
36450;DHT22;22475;51.390;7.180;2023-03-01T06:49:11;8.10;74.70
36450;DHT22;22475;51.390;7.180;2023-03-01T06:51:37;8.00;74.60
36450;DHT22;22475;51.390;7.180;2023-03-01T06:54:04;8.00;74.60
36450;DHT22;22475;51.390;7.180;2023-03-01T06:56:31;8.00;74.70
36450;DHT22;22475;51.390;7.180;2023-03-01T06:58:59;8.10;74.80
36450;DHT22;22475;51.390;7.180;2023-03-01T07:01:27;8.00;74.70
36450;DHT22;22475;51.390;7.180;2023-03-01T07:03:54;8.00;74.80
36450;DHT22;22475;51.390;7.180;2023-03-01T07:06:21;8.00;74.90
36450;DHT22;22475;51.390;7.180;2023-03-01T07:08:48;8.00;74.80
36450;DHT22;22475;51.390;7.180;2023-03-01T07:11:15;8.00;74.80
36450;DHT22;22475;51.390;7.180;2023-03-01T07:13:42;8.10;74.90
36450;DHT22;22475;51.390;7.180;2023-03-01T07:16:09;8.10;74.90
36450;DHT22;22475;51.390;7.180;2023-03-01T07:18:37;8.10;75.00
36450;DHT22;22475;51.390;7.180;2023-03-01T07:21:04;8.10;75.00
36450;DHT22;22475;51.390;7.180;2023-03-01T07:23:32;8.10;75.00
36450;DHT22;22475;51.390;7.180;2023-03-01T07:25:59;8.10;75.10
36450;DHT22;22475;51.390;7.180;2023-03-01T07:28:26;8.10;75.10
36450;DHT22;22475;51.390;7.180;2023-03-01T07:30:53;8.10;75.10
36450;DHT22;22475;51.390;7.180;2023-03-01T07:33:20;8.10;75.10
36450;DHT22;22475;51.390;7.180;2023-03-01T07:35:55;8.10;75.10
36450;DHT22;22475;51.390;7.180;2023-03-01T07:38:22;8.10;75.10
36450;DHT22;22475;51.390;7.180;2023-03-01T07:40:48;8.10;75.10
36450;DHT22;22475;51.390;7.180;2023-03-01T07:43:15;8.10;75.00
36450;DHT22;22475;51.390;7.180;2023-03-01T07:45:42;8.10;75.10
36450;DHT22;22475;51.390;7.180;2023-03-01T07:48:09;8.20;75.20
36450;DHT22;22475;51.390;7.180;2023-03-01T07:50:36;8.20;75.20
36450;DHT22;22475;51.390;7.180;2023-03-01T07:53:04;8.20;75.20
36450;DHT22;22475;51.390;7.180;2023-03-01T07:55:30;8.20;75.30
36450;DHT22;22475;51.390;7.180;2023-03-01T07:57:57;8.20;75.40
36450;DHT22;22475;51.390;7.180;2023-03-01T08:00:24;8.20;75.50
36450;DHT22;22475;51.390;7.180;2023-03-01T08:02:51;8.20;75.50
36450;DHT22;22475;51.390;7.180;2023-03-01T08:05:18;8.20;75.50
36450;DHT22;22475;51.390;7.180;2023-03-01T08:07:44;8.20;75.60
36450;DHT22;22475;51.390;7.180;2023-03-01T08:10:12;8.20;75.70
36450;DHT22;22475;51.390;7.180;2023-03-01T08:12:39;8.30;75.90
36450;DHT22;22475;51.390;7.180;2023-03-01T08:15:07;8.30;75.90
36450;DHT22;22475;51.390;7.180;2023-03-01T08:17:34;8.30;76.00
36450;DHT22;22475;51.390;7.180;2023-03-01T08:20:01;8.30;76.00
36450;DHT22;22475;51.390;7.180;2023-03-01T08:22:28;8.30;76.00
36450;DHT22;22475;51.390;7.180;2023-03-01T08:24:55;8.30;76.20
36450;DHT22;22475;51.390;7.180;2023-03-01T08:27:23;8.30;76.30
36450;DHT22;22475;51.390;7.180;2023-03-01T08:29:51;8.30;76.40
36450;DHT22;22475;51.390;7.180;2023-03-01T08:32:17;8.30;76.50
36450;DHT22;22475;51.390;7.180;2023-03-01T08:34:46;8.40;76.60
36450;DHT22;22475;51.390;7.180;2023-03-01T08:37:13;8.40;76.60
36450;DHT22;22475;51.390;7.180;2023-03-01T08:39:39;8.40;76.60
36450;DHT22;22475;51.390;7.180;2023-03-01T08:42:06;8.40;76.70
36450;DHT22;22475;51.390;7.180;2023-03-01T08:44:34;8.40;76.60
36450;DHT22;22475;51.390;7.180;2023-03-01T08:47:01;8.40;76.60
36450;DHT22;22475;51.390;7.180;2023-03-01T08:49:30;8.40;76.60
36450;DHT22;22475;51.390;7.180;2023-03-01T08:51:58;8.40;77.20
36450;DHT22;22475;51.390;7.180;2023-03-01T08:54:24;8.40;76.30
36450;DHT22;22475;51.390;7.180;2023-03-01T08:56:51;8.40;76.20
36450;DHT22;22475;51.390;7.180;2023-03-01T08:59:18;8.40;76.20
36450;DHT22;22475;51.390;7.180;2023-03-01T09:01:47;8.30;76.20
36450;DHT22;22475;51.390;7.180;2023-03-01T09:04:14;8.40;76.20
36450;DHT22;22475;51.390;7.180;2023-03-01T09:06:41;8.40;76.30
36450;DHT22;22475;51.390;7.180;2023-03-01T09:09:13;8.40;76.40
36450;DHT22;22475;51.390;7.180;2023-03-01T09:11:41;8.40;76.80
36450;DHT22;22475;51.390;7.180;2023-03-01T09:14:08;8.40;77.10
36450;DHT22;22475;51.390;7.180;2023-03-01T09:16:35;8.40;77.20
36450;DHT22;22475;51.390;7.180;2023-03-01T09:19:03;8.50;77.50
36450;DHT22;22475;51.390;7.180;2023-03-01T09:21:30;8.50;77.70
36450;DHT22;22475;51.390;7.180;2023-03-01T09:23:57;8.50;77.70
36450;DHT22;22475;51.390;7.180;2023-03-01T09:26:24;8.50;77.50
36450;DHT22;22475;51.390;7.180;2023-03-01T09:28:53;8.50;77.50
36450;DHT22;22475;51.390;7.180;2023-03-01T09:31:21;8.50;77.40
36450;DHT22;22475;51.390;7.180;2023-03-01T09:33:50;8.50;77.30
36450;DHT22;22475;51.390;7.180;2023-03-01T09:36:21;8.50;77.20
36450;DHT22;22475;51.390;7.180;2023-03-01T09:38:48;8.50;77.00
36450;DHT22;22475;51.390;7.180;2023-03-01T09:44:11;8.60;77.10
36450;DHT22;22475;51.390;7.180;2023-03-01T09:46:42;8.50;77.00
36450;DHT22;22475;51.390;7.180;2023-03-01T09:49:14;8.60;77.10
36450;DHT22;22475;51.390;7.180;2023-03-01T09:51:50;8.50;76.90
36450;DHT22;22475;51.390;7.180;2023-03-01T09:54:20;8.50;76.90
36450;DHT22;22475;51.390;7.180;2023-03-01T09:56:57;8.50;76.90
36450;DHT22;22475;51.390;7.180;2023-03-01T09:59:31;8.60;77.00
36450;DHT22;22475;51.390;7.180;2023-03-01T10:02:09;8.60;77.00
36450;DHT22;22475;51.390;7.180;2023-03-01T10:04:44;8.60;77.20
36450;DHT22;22475;51.390;7.180;2023-03-01T10:07:22;8.60;77.20
36450;DHT22;22475;51.390;7.180;2023-03-01T10:09:52;8.60;77.30
36450;DHT22;22475;51.390;7.180;2023-03-01T10:12:21;8.60;77.30
36450;DHT22;22475;51.390;7.180;2023-03-01T10:14:55;8.60;77.20
36450;DHT22;22475;51.390;7.180;2023-03-01T10:17:31;8.60;77.20
36450;DHT22;22475;51.390;7.180;2023-03-01T10:20:14;8.60;77.50
36450;DHT22;22475;51.390;7.180;2023-03-01T10:22:43;8.70;77.80
36450;DHT22;22475;51.390;7.180;2023-03-01T10:25:15;8.70;77.70
36450;DHT22;22475;51.390;7.180;2023-03-01T10:27:49;8.70;77.50
36450;DHT22;22475;51.390;7.180;2023-03-01T10:30:20;8.70;77.40
36450;DHT22;22475;51.390;7.180;2023-03-01T10:32:49;8.70;77.50
36450;DHT22;22475;51.390;7.180;2023-03-01T10:35:18;8.70;77.50
36450;DHT22;22475;51.390;7.180;2023-03-01T10:37:59;8.70;77.50
36450;DHT22;22475;51.390;7.180;2023-03-01T10:40:28;8.70;77.40
36450;DHT22;22475;51.390;7.180;2023-03-01T10:42:58;8.70;77.30
36450;DHT22;22475;51.390;7.180;2023-03-01T10:45:36;8.80;77.70
36450;DHT22;22475;51.390;7.180;2023-03-01T10:48:09;8.80;78.10
36450;DHT22;22475;51.390;7.180;2023-03-01T10:50:38;8.80;78.20
36450;DHT22;22475;51.390;7.180;2023-03-01T10:53:21;8.80;78.20
36450;DHT22;22475;51.390;7.180;2023-03-01T10:55:57;8.80;78.20
36450;DHT22;22475;51.390;7.180;2023-03-01T10:58:24;8.80;78.20
36450;DHT22;22475;51.390;7.180;2023-03-01T11:00:53;8.80;78.20
36450;DHT22;22475;51.390;7.180;2023-03-01T11:03:23;8.80;78.10
36450;DHT22;22475;51.390;7.180;2023-03-01T11:05:53;8.80;77.50
36450;DHT22;22475;51.390;7.180;2023-03-01T11:08:39;8.80;77.40
36450;DHT22;22475;51.390;7.180;2023-03-01T11:11:16;8.80;77.30
36450;DHT22;22475;51.390;7.180;2023-03-01T11:13:54;8.80;77.20
36450;DHT22;22475;51.390;7.180;2023-03-01T11:16:40;8.80;77.10
36450;DHT22;22475;51.390;7.180;2023-03-01T11:19:17;8.80;76.90
36450;DHT22;22475;51.390;7.180;2023-03-01T11:22:02;8.80;77.80
36450;DHT22;22475;51.390;7.180;2023-03-01T11:24:36;8.80;77.10
36450;DHT22;22475;51.390;7.180;2023-03-01T11:27:17;8.80;77.10
36450;DHT22;22475;51.390;7.180;2023-03-01T11:29:46;8.80;77.10
36450;DHT22;22475;51.390;7.180;2023-03-01T11:32:16;8.80;77.30
36450;DHT22;22475;51.390;7.180;2023-03-01T11:34:48;8.80;77.60
36450;DHT22;22475;51.390;7.180;2023-03-01T11:37:23;8.80;77.60
36450;DHT22;22475;51.390;7.180;2023-03-01T11:39:59;8.90;77.50
36450;DHT22;22475;51.390;7.180;2023-03-01T11:42:39;8.90;77.20
36450;DHT22;22475;51.390;7.180;2023-03-01T11:45:11;8.90;77.00
36450;DHT22;22475;51.390;7.180;2023-03-01T11:47:59;8.90;76.90
36450;DHT22;22475;51.390;7.180;2023-03-01T11:50:30;8.80;76.60
36450;DHT22;22475;51.390;7.180;2023-03-01T11:53:13;8.90;76.60
36450;DHT22;22475;51.390;7.180;2023-03-01T11:56:06;8.80;76.60
36450;DHT22;22475;51.390;7.180;2023-03-01T11:58:48;8.90;76.70
36450;DHT22;22475;51.390;7.180;2023-03-01T12:01:28;8.90;76.80
36450;DHT22;22475;51.390;7.180;2023-03-01T12:04:19;8.90;76.80
36450;DHT22;22475;51.390;7.180;2023-03-01T12:06:57;8.90;77.10
36450;DHT22;22475;51.390;7.180;2023-03-01T12:09:38;8.90;77.20
36450;DHT22;22475;51.390;7.180;2023-03-01T12:12:32;8.90;77.50
36450;DHT22;22475;51.390;7.180;2023-03-01T12:15:28;8.90;77.60
36450;DHT22;22475;51.390;7.180;2023-03-01T12:18:16;8.90;77.80
36450;DHT22;22475;51.390;7.180;2023-03-01T12:20:54;9.00;78.10
36450;DHT22;22475;51.390;7.180;2023-03-01T12:23:51;9.00;77.90
36450;DHT22;22475;51.390;7.180;2023-03-01T12:26:26;9.00;77.90
36450;DHT22;22475;51.390;7.180;2023-03-01T12:29:18;9.00;77.80
36450;DHT22;22475;51.390;7.180;2023-03-01T12:32:20;9.00;77.70
36450;DHT22;22475;51.390;7.180;2023-03-01T12:35:06;9.00;77.90
36450;DHT22;22475;51.390;7.180;2023-03-01T12:37:46;9.00;78.00
36450;DHT22;22475;51.390;7.180;2023-03-01T12:40:33;9.00;78.00
36450;DHT22;22475;51.390;7.180;2023-03-01T12:43:15;9.10;78.20
36450;DHT22;22475;51.390;7.180;2023-03-01T12:46:13;9.10;78.20
36450;DHT22;22475;51.390;7.180;2023-03-01T12:48:48;9.10;78.20
36450;DHT22;22475;51.390;7.180;2023-03-01T12:51:20;9.00;77.90
36450;DHT22;22475;51.390;7.180;2023-03-01T12:53:51;9.10;77.70
36450;DHT22;22475;51.390;7.180;2023-03-01T12:56:21;9.00;77.40
36450;DHT22;22475;51.390;7.180;2023-03-01T12:58:57;9.00;77.20
36450;DHT22;22475;51.390;7.180;2023-03-01T13:01:33;9.10;77.10
36450;DHT22;22475;51.390;7.180;2023-03-01T13:04:13;9.10;77.00
36450;DHT22;22475;51.390;7.180;2023-03-01T13:06:47;9.10;77.00
36450;DHT22;22475;51.390;7.180;2023-03-01T13:09:26;9.10;76.90
36450;DHT22;22475;51.390;7.180;2023-03-01T13:11:55;9.10;76.90
36450;DHT22;22475;51.390;7.180;2023-03-01T13:14:36;9.10;77.10
36450;DHT22;22475;51.390;7.180;2023-03-01T13:17:31;9.10;77.40
36450;DHT22;22475;51.390;7.180;2023-03-01T13:19:59;9.10;77.30
36450;DHT22;22475;51.390;7.180;2023-03-01T13:22:29;9.10;77.20
36450;DHT22;22475;51.390;7.180;2023-03-01T13:25:18;9.10;77.00
36450;DHT22;22475;51.390;7.180;2023-03-01T13:27:46;9.10;76.80
36450;DHT22;22475;51.390;7.180;2023-03-01T13:30:39;9.10;76.80
36450;DHT22;22475;51.390;7.180;2023-03-01T13:33:40;9.10;76.70
36450;DHT22;22475;51.390;7.180;2023-03-01T13:36:08;9.10;76.70
36450;DHT22;22475;51.390;7.180;2023-03-01T13:38:47;9.10;76.70
36450;DHT22;22475;51.390;7.180;2023-03-01T13:41:15;9.10;76.70
36450;DHT22;22475;51.390;7.180;2023-03-01T13:43:44;9.20;76.80
36450;DHT22;22475;51.390;7.180;2023-03-01T13:46:16;9.20;76.70
36450;DHT22;22475;51.390;7.180;2023-03-01T13:48:47;9.20;76.80
36450;DHT22;22475;51.390;7.180;2023-03-01T13:51:16;9.20;76.60
36450;DHT22;22475;51.390;7.180;2023-03-01T13:53:47;9.20;76.50
36450;DHT22;22475;51.390;7.180;2023-03-01T13:56:16;9.20;76.60
36450;DHT22;22475;51.390;7.180;2023-03-01T13:58:48;9.20;76.60
36450;DHT22;22475;51.390;7.180;2023-03-01T14:01:21;9.20;76.90
36450;DHT22;22475;51.390;7.180;2023-03-01T14:03:49;9.20;77.00
36450;DHT22;22475;51.390;7.180;2023-03-01T14:06:19;9.20;77.00
36450;DHT22;22475;51.390;7.180;2023-03-01T14:08:48;9.20;77.10
36450;DHT22;22475;51.390;7.180;2023-03-01T14:14:26;9.20;77.50
36450;DHT22;22475;51.390;7.180;2023-03-01T14:17:08;9.20;77.50
36450;DHT22;22475;51.390;7.180;2023-03-01T14:19:37;9.20;77.40
36450;DHT22;22475;51.390;7.180;2023-03-01T14:22:14;9.30;77.30
36450;DHT22;22475;51.390;7.180;2023-03-01T14:24:47;9.20;77.10
36450;DHT22;22475;51.390;7.180;2023-03-01T14:27:15;9.30;77.10
36450;DHT22;22475;51.390;7.180;2023-03-01T14:29:43;9.30;77.10
36450;DHT22;22475;51.390;7.180;2023-03-01T14:32:18;9.30;77.20
36450;DHT22;22475;51.390;7.180;2023-03-01T14:34:48;9.30;77.20
36450;DHT22;22475;51.390;7.180;2023-03-01T14:37:20;9.30;77.10
36450;DHT22;22475;51.390;7.180;2023-03-01T14:39:48;9.30;77.00
36450;DHT22;22475;51.390;7.180;2023-03-01T14:42:16;9.30;77.10
36450;DHT22;22475;51.390;7.180;2023-03-01T14:44:44;9.30;76.90
36450;DHT22;22475;51.390;7.180;2023-03-01T14:47:13;9.30;76.70
36450;DHT22;22475;51.390;7.180;2023-03-01T14:49:42;9.30;76.70
36450;DHT22;22475;51.390;7.180;2023-03-01T14:52:19;9.30;76.70
36450;DHT22;22475;51.390;7.180;2023-03-01T14:54:48;9.30;76.60
36450;DHT22;22475;51.390;7.180;2023-03-01T14:57:18;9.30;76.70
36450;DHT22;22475;51.390;7.180;2023-03-01T14:59:46;9.30;76.80
36450;DHT22;22475;51.390;7.180;2023-03-01T15:02:17;9.40;76.90
36450;DHT22;22475;51.390;7.180;2023-03-01T15:04:47;9.40;76.70
36450;DHT22;22475;51.390;7.180;2023-03-01T15:07:16;9.30;76.50
36450;DHT22;22475;51.390;7.180;2023-03-01T15:09:43;9.40;76.70
36450;DHT22;22475;51.390;7.180;2023-03-01T15:12:41;9.40;76.90
36450;DHT22;22475;51.390;7.180;2023-03-01T15:15:31;9.30;77.30
36450;DHT22;22475;51.390;7.180;2023-03-01T15:17:59;9.40;77.50
36450;DHT22;22475;51.390;7.180;2023-03-01T15:20:29;9.30;77.50
36450;DHT22;22475;51.390;7.180;2023-03-01T15:23:02;9.40;78.50
36450;DHT22;22475;51.390;7.180;2023-03-01T15:25:30;9.40;78.60
36450;DHT22;22475;51.390;7.180;2023-03-01T15:27:59;9.40;77.80
36450;DHT22;22475;51.390;7.180;2023-03-01T15:30:30;9.40;77.80
36450;DHT22;22475;51.390;7.180;2023-03-01T15:33:26;9.40;77.90
36450;DHT22;22475;51.390;7.180;2023-03-01T15:35:55;9.40;77.70
36450;DHT22;22475;51.390;7.180;2023-03-01T15:38:35;9.40;77.40
36450;DHT22;22475;51.390;7.180;2023-03-01T15:41:06;9.40;77.10
36450;DHT22;22475;51.390;7.180;2023-03-01T15:43:47;9.40;77.10
36450;DHT22;22475;51.390;7.180;2023-03-01T15:46:21;9.50;77.40
36450;DHT22;22475;51.390;7.180;2023-03-01T15:48:52;9.40;77.40
36450;DHT22;22475;51.390;7.180;2023-03-01T15:51:26;9.40;77.50
36450;DHT22;22475;51.390;7.180;2023-03-01T15:53:54;9.40;77.00
36450;DHT22;22475;51.390;7.180;2023-03-01T15:56:23;9.40;77.20
36450;DHT22;22475;51.390;7.180;2023-03-01T15:58:50;9.40;77.10
36450;DHT22;22475;51.390;7.180;2023-03-01T16:01:17;9.40;77.00
36450;DHT22;22475;51.390;7.180;2023-03-01T16:03:45;9.40;76.90
36450;DHT22;22475;51.390;7.180;2023-03-01T16:06:12;9.40;76.90
36450;DHT22;22475;51.390;7.180;2023-03-01T16:08:39;9.40;76.60
36450;DHT22;22475;51.390;7.180;2023-03-01T16:11:20;9.40;76.70
36450;DHT22;22475;51.390;7.180;2023-03-01T16:13:47;9.40;77.00
36450;DHT22;22475;51.390;7.180;2023-03-01T16:16:16;9.40;77.00
36450;DHT22;22475;51.390;7.180;2023-03-01T16:18:44;9.40;77.20
36450;DHT22;22475;51.390;7.180;2023-03-01T16:21:16;9.40;77.10
36450;DHT22;22475;51.390;7.180;2023-03-01T16:23:45;9.40;77.70
36450;DHT22;22475;51.390;7.180;2023-03-01T16:26:13;9.40;76.90
36450;DHT22;22475;51.390;7.180;2023-03-01T16:28:40;9.40;76.60
36450;DHT22;22475;51.390;7.180;2023-03-01T16:31:08;9.40;76.60
36450;DHT22;22475;51.390;7.180;2023-03-01T16:33:35;9.40;76.40
36450;DHT22;22475;51.390;7.180;2023-03-01T16:36:07;9.40;76.30
36450;DHT22;22475;51.390;7.180;2023-03-01T16:38:33;9.40;76.10
36450;DHT22;22475;51.390;7.180;2023-03-01T16:41:01;9.40;76.20
36450;DHT22;22475;51.390;7.180;2023-03-01T16:43:29;9.40;76.30
36450;DHT22;22475;51.390;7.180;2023-03-01T16:45:56;9.40;76.40
36450;DHT22;22475;51.390;7.180;2023-03-01T16:48:24;9.40;76.40
36450;DHT22;22475;51.390;7.180;2023-03-01T16:50:58;9.40;76.30
36450;DHT22;22475;51.390;7.180;2023-03-01T16:53:25;9.40;76.20
36450;DHT22;22475;51.390;7.180;2023-03-01T16:55:55;9.40;76.00
36450;DHT22;22475;51.390;7.180;2023-03-01T16:58:22;9.40;76.10
36450;DHT22;22475;51.390;7.180;2023-03-01T17:00:51;9.40;76.40
36450;DHT22;22475;51.390;7.180;2023-03-01T17:03:19;9.40;76.60
36450;DHT22;22475;51.390;7.180;2023-03-01T17:05:46;9.40;76.40
36450;DHT22;22475;51.390;7.180;2023-03-01T17:08:13;9.40;76.20
36450;DHT22;22475;51.390;7.180;2023-03-01T17:10:40;9.40;76.00
36450;DHT22;22475;51.390;7.180;2023-03-01T17:13:07;9.40;76.00
36450;DHT22;22475;51.390;7.180;2023-03-01T17:15:34;9.40;75.90
36450;DHT22;22475;51.390;7.180;2023-03-01T17:18:02;9.30;75.80
36450;DHT22;22475;51.390;7.180;2023-03-01T17:20:29;9.40;76.20
36450;DHT22;22475;51.390;7.180;2023-03-01T17:22:55;9.40;76.10
36450;DHT22;22475;51.390;7.180;2023-03-01T17:25:23;9.30;76.00
36450;DHT22;22475;51.390;7.180;2023-03-01T17:27:50;9.30;76.00
36450;DHT22;22475;51.390;7.180;2023-03-01T17:30:17;9.30;75.80
36450;DHT22;22475;51.390;7.180;2023-03-01T17:32:43;9.30;76.00
36450;DHT22;22475;51.390;7.180;2023-03-01T17:35:12;9.30;76.30
36450;DHT22;22475;51.390;7.180;2023-03-01T17:37:39;9.30;76.40